Time;durP1;ratioP1;P1;durP2;ratioP2;P2;SDS_P1;SDS_P2;PMS_P1;PMS_P2;Temp;Humidity;BMP_temperature;BMP_pressure;BME280_temperature;BME280_humidity;BME280_pressure;Samples;Min_cycle;Max_cycle;Signal;HPM_P1;HPM_P2
2022/06/05 00:01:42;;;;;;;5.47;3.50;;;20.20;14.10;;;;;;5014012;28;35641;-82
2022/06/05 00:04:29;;;;;;;4.00;3.67;;;20.20;14.60;;;;;;4998131;28;34135;-82
2022/06/05 00:07:24;;;;;;;4.03;3.60;;;20.20;15.80;;;;;;5014076;28;34167;-82
2022/06/05 00:10:13;;;;;;;3.90;3.40;;;20.20;16.30;;;;;;5013917;28;34092;-82
2022/06/05 00:12:50;;;;;;;3.70;3.40;;;20.10;16.60;;;;;;5032756;28;34283;-82
2022/06/05 00:15:17;;;;;;;4.45;3.67;;;20.10;14.90;;;;;;5030214;28;33796;-82
2022/06/05 00:17:43;;;;;;;4.70;3.58;;;20.10;14.40;;;;;;5017499;28;34179;-82
2022/06/05 00:20:10;;;;;;;4.13;3.70;;;20.00;14.30;;;;;;5028430;28;34071;-82
2022/06/05 00:22:39;;;;;;;5.28;4.00;;;20.00;14.50;;;;;;5035362;28;34416;-82
2022/06/05 00:25:06;;;;;;;4.00;3.45;;;20.00;14.80;;;;;;5017674;28;34192;-82
2022/06/05 00:27:42;;;;;;;4.28;3.88;;;19.90;14.70;;;;;;5034506;28;33722;-82
2022/06/05 00:30:21;;;;;;;3.83;3.53;;;19.90;15.40;;;;;;5000828;28;34273;-82
2022/06/05 00:32:56;;;;;;;4.28;3.88;;;19.90;15.80;;;;;;5015153;28;36396;-82
2022/06/05 00:35:22;;;;;;;3.92;3.63;;;19.80;15.40;;;;;;5014269;28;34225;-82
2022/06/05 00:38:02;;;;;;;3.83;3.53;;;19.80;14.90;;;;;;4999301;28;34227;-82
2022/06/05 00:40:37;;;;;;;4.10;3.70;;;19.80;16.50;;;;;;5034259;28;34920;-83
2022/06/05 00:43:10;;;;;;;4.00;3.60;;;19.70;15.60;;;;;;4998551;28;35944;-82
2022/06/05 00:45:39;;;;;;;3.75;3.45;;;19.70;15.70;;;;;;5030638;28;34183;-82
2022/06/05 00:48:08;;;;;;;4.32;3.42;;;19.70;15.20;;;;;;5031078;28;33707;-82
2022/06/05 00:50:34;;;;;;;4.82;4.07;;;19.60;15.30;;;;;;5014227;28;34253;-82
2022/06/05 00:53:02;;;;;;;4.40;3.67;;;19.60;15.30;;;;;;5014371;28;36909;-82
2022/06/05 00:55:35;;;;;;;4.00;3.60;;;19.50;15.60;;;;;;4998546;28;34225;-81
2022/06/05 00:58:02;;;;;;;4.10;3.55;;;19.50;16.00;;;;;;5015054;28;34214;-83
2022/06/05 01:00:31;;;;;;;4.93;3.60;;;19.40;15.60;;;;;;5032428;28;34000;-82
2022/06/05 01:02:59;;;;;;;3.60;3.30;;;19.40;15.70;;;;;;5013208;28;35747;-82
2022/06/05 01:05:26;;;;;;;4.85;3.30;;;19.30;15.70;;;;;;5013090;28;34105;-82
2022/06/05 01:07:53;;;;;;;3.95;3.55;;;19.30;15.80;;;;;;5010893;28;34209;-82
2022/06/05 01:10:22;;;;;;;4.28;3.80;;;19.30;15.90;;;;;;5004676;28;34401;-82
2022/06/05 01:13:17;;;;;;;3.88;3.58;;;19.20;16.20;;;;;;5009594;28;35646;-82
2022/06/05 01:16:08;;;;;;;5.13;3.70;;;19.20;18.60;;;;;;4993824;28;34449;-82
2022/06/05 01:19:00;;;;;;;3.83;3.53;;;19.20;17.80;;;;;;5012196;28;34278;-82
2022/06/05 01:21:57;;;;;;;4.13;3.38;;;19.10;17.30;;;;;;5013699;28;34552;-82
2022/06/05 01:24:42;;;;;;;4.22;3.83;;;19.20;18.30;;;;;;5022423;28;34233;-81
2022/06/05 01:27:14;;;;;;;3.97;3.65;;;19.10;17.80;;;;;;4997495;28;34250;-79
2022/06/05 01:29:53;;;;;;;3.80;3.50;;;19.10;16.40;;;;;;4997046;28;34168;-81
2022/06/05 01:32:32;;;;;;;3.95;3.65;;;19.20;17.80;;;;;;5013946;28;34300;-78
2022/06/05 01:35:13;;;;;;;4.25;3.63;;;19.20;16.90;;;;;;4998627;28;35847;-81
2022/06/05 01:37:46;;;;;;;3.92;3.53;;;19.20;16.90;;;;;;5000130;28;34492;-81
2022/06/05 01:40:31;;;;;;;3.97;3.60;;;19.30;16.50;;;;;;5006956;28;33686;-81
2022/06/05 01:43:06;;;;;;;4.13;3.72;;;19.30;16.90;;;;;;4996269;28;34230;-82
2022/06/05 01:45:39;;;;;;;3.72;3.42;;;19.40;16.50;;;;;;4995211;28;36866;-82
2022/06/05 01:48:09;;;;;;;3.03;2.83;;;19.40;16.10;;;;;;5014259;28;34178;-82
2022/06/05 01:50:44;;;;;;;4.15;3.70;;;19.40;15.80;;;;;;5012496;28;34237;-82
2022/06/05 01:53:22;;;;;;;3.53;3.22;;;19.40;16.50;;;;;;5033104;28;34321;-81
2022/06/05 01:55:54;;;;;;;4.88;3.65;;;19.40;16.40;;;;;;4993798;28;35768;-82
2022/06/05 01:58:26;;;;;;;4.00;3.67;;;19.50;16.30;;;;;;5013751;28;34187;-82
2022/06/05 02:00:57;;;;;;;3.58;3.28;;;19.50;15.90;;;;;;4997220;28;33832;-83
2022/06/05 02:03:30;;;;;;;4.05;3.75;;;19.50;15.80;;;;;;5023056;28;34080;-82
2022/06/05 02:06:01;;;;;;;3.80;3.50;;;19.50;15.90;;;;;;4986398;28;35836;-83
2022/06/05 02:08:38;;;;;;;6.70;4.00;;;19.40;15.80;;;;;;5011052;28;33673;-82
2022/06/05 02:11:24;;;;;;;3.72;3.42;;;19.50;16.60;;;;;;4994351;28;34604;-82
2022/06/05 02:13:54;;;;;;;4.10;3.58;;;19.40;17.80;;;;;;4997491;28;34144;-82
2022/06/05 02:16:20;;;;;;;3.75;3.45;;;19.30;15.90;;;;;;4998454;28;35611;-83
2022/06/05 02:18:47;;;;;;;4.28;3.88;;;19.30;15.80;;;;;;5014034;28;34256;-82
2022/06/05 02:21:13;;;;;;;4.15;3.53;;;19.30;15.90;;;;;;5013429;28;34294;-82
2022/06/05 02:23:41;;;;;;;3.67;3.38;;;19.30;16.00;;;;;;5013481;28;34104;-83
2022/06/05 02:26:08;;;;;;;4.15;3.85;;;19.20;16.10;;;;;;5013557;28;35918;-82
2022/06/05 02:28:36;;;;;;;4.28;3.88;;;19.20;16.20;;;;;;4997860;28;34202;-82
2022/06/05 02:31:31;;;;;;;4.05;3.65;;;19.20;16.10;;;;;;4997461;28;34119;-83
2022/06/05 02:34:18;;;;;;;3.90;3.60;;;19.20;17.80;;;;;;5014443;28;34441;-83
2022/06/05 02:37:00;;;;;;;3.90;3.50;;;19.20;18.00;;;;;;5011624;28;35965;-82
2022/06/05 02:39:55;;;;;;;3.85;3.45;;;19.20;18.20;;;;;;5011617;28;34523;-82
2022/06/05 02:42:39;;;;;;;3.88;3.58;;;19.20;18.10;;;;;;5014390;28;35194;-83
2022/06/05 02:45:25;;;;;;;4.30;3.92;;;19.10;18.40;;;;;;5012187;28;34099;-82
2022/06/05 02:48:09;;;;;;;3.97;3.67;;;19.10;18.40;;;;;;5017475;28;34460;-82
2022/06/05 02:50:48;;;;;;;4.28;3.85;;;19.00;16.80;;;;;;5003895;28;34237;-81
2022/06/05 02:53:15;;;;;;;4.18;3.88;;;19.10;18.00;;;;;;5016795;28;34094;-82
2022/06/05 02:55:41;;;;;;;4.50;4.10;;;19.00;16.40;;;;;;5017963;28;33884;-82
2022/06/05 02:58:09;;;;;;;4.03;3.67;;;19.00;16.50;;;;;;5017157;28;35878;-82
2022/06/05 03:00:38;;;;;;;4.03;3.55;;;19.00;16.60;;;;;;5011404;28;34268;-82
2022/06/05 03:05:47;;;;;;;3.85;3.47;;;19.00;16.80;;;;;;5021670;28;34090;-82
2022/06/05 03:08:15;;;;;;;4.40;4.00;;;19.00;16.70;;;;;;5032638;28;34254;-82
2022/06/05 03:10:42;;;;;;;7.00;3.55;;;19.00;16.90;;;;;;5014218;28;34380;-81
2022/06/05 03:13:09;;;;;;;4.50;4.10;;;19.00;16.90;;;;;;5017164;28;33829;-82
2022/06/05 03:15:35;;;;;;;4.03;3.72;;;19.00;16.90;;;;;;5024114;28;34134;-82
2022/06/05 03:18:01;;;;;;;4.72;4.25;;;19.00;16.90;;;;;;5037281;28;35509;-82
2022/06/05 03:20:27;;;;;;;4.25;3.95;;;19.00;17.00;;;;;;5036752;28;34229;-82
2022/06/05 03:22:54;;;;;;;4.80;3.97;;;19.00;17.10;;;;;;5035040;28;34175;-82
2022/06/05 03:25:23;;;;;;;4.07;3.67;;;19.00;17.20;;;;;;5018347;28;34123;-81
2022/06/05 03:27:49;;;;;;;4.85;4.45;;;19.00;17.40;;;;;;5025011;28;34379;-81
2022/06/05 03:30:16;;;;;;;4.75;4.30;;;19.00;17.40;;;;;;5016864;28;34305;-81
2022/06/05 03:32:43;;;;;;;5.18;3.70;;;19.10;17.50;;;;;;4983531;28;34330;-83
2022/06/05 03:35:10;;;;;;;4.43;4.03;;;19.10;17.50;;;;;;5000282;28;34471;-81
2022/06/05 03:37:37;;;;;;;5.53;4.30;;;19.10;17.40;;;;;;5017064;28;34903;-79
2022/06/05 03:40:07;;;;;;;4.30;4.00;;;19.10;17.40;;;;;;5016468;28;34383;-82
2022/06/05 03:42:33;;;;;;;4.82;4.43;;;19.20;17.90;;;;;;5034016;28;34124;-81
2022/06/05 03:44:59;;;;;;;4.57;4.18;;;19.30;17.40;;;;;;5017331;28;34255;-81
2022/06/05 03:47:25;;;;;;;4.10;3.80;;;19.40;17.30;;;;;;5014825;28;35588;-81
2022/06/05 03:49:51;;;;;;;4.38;3.97;;;19.40;17.30;;;;;;5015526;28;34064;-81
2022/06/05 03:52:16;;;;;;;4.20;3.90;;;19.50;17.20;;;;;;5016483;28;34119;-82
2022/06/05 03:54:42;;;;;;;5.38;4.28;;;19.50;17.10;;;;;;5016153;28;33873;-82
2022/06/05 03:57:08;;;;;;;4.45;4.05;;;19.60;17.00;;;;;;5011980;28;36322;-82
2022/06/05 03:59:36;;;;;;;4.40;4.00;;;19.60;17.00;;;;;;4997419;28;34234;-81
2022/06/05 04:02:04;;;;;;;5.22;4.03;;;19.70;17.20;;;;;;5033788;28;34222;-82
2022/06/05 04:04:31;;;;;;;3.80;3.50;;;19.70;17.10;;;;;;5015985;28;34101;-82
2022/06/05 04:06:57;;;;;;;4.72;4.07;;;19.70;17.00;;;;;;5014813;28;35682;-82
2022/06/05 04:09:23;;;;;;;4.22;3.83;;;19.80;17.10;;;;;;5032393;28;34353;-82
2022/06/05 04:11:49;;;;;;;4.03;3.72;;;19.80;17.10;;;;;;5034418;28;34494;-81
2022/06/05 04:14:15;;;;;;;4.45;4.05;;;19.80;17.20;;;;;;5031743;28;34244;-80
2022/06/05 04:16:41;;;;;;;4.18;3.78;;;19.80;17.20;;;;;;4999101;28;35581;-80
2022/06/05 04:19:08;;;;;;;4.03;3.63;;;19.80;17.30;;;;;;5017303;28;34508;-80
2022/06/05 04:21:36;;;;;;;5.40;4.22;;;19.80;17.50;;;;;;5015280;28;34264;-79
2022/06/05 04:24:03;;;;;;;4.85;4.35;;;19.80;17.70;;;;;;5015357;28;34103;-77
2022/06/05 04:26:32;;;;;;;6.28;4.32;;;19.80;18.40;;;;;;4997731;28;35955;-77
2022/06/05 04:28:59;;;;;;;10.07;4.68;;;19.80;18.20;;;;;;5016616;28;34231;-79
2022/06/05 04:31:28;;;;;;;5.38;4.53;;;19.80;18.30;;;;;;5016585;28;34344;-79
2022/06/05 04:33:57;;;;;;;4.88;4.13;;;19.80;18.60;;;;;;5012896;28;34238;-78
2022/06/05 04:36:24;;;;;;;6.70;4.47;;;19.70;18.90;;;;;;5007112;28;35569;-78
2022/06/05 04:38:50;;;;;;;6.45;4.85;;;19.70;19.10;;;;;;4990253;28;34063;-77
2022/06/05 04:41:18;;;;;;;6.43;4.78;;;19.70;19.40;;;;;;5004898;28;34189;-76
2022/06/05 04:43:44;;;;;;;6.60;4.25;;;19.70;19.70;;;;;;4971647;28;34147;-76
2022/06/05 04:46:11;;;;;;;4.93;4.43;;;19.70;19.90;;;;;;4983855;28;36012;-77
2022/06/05 04:48:37;;;;;;;5.45;4.95;;;19.70;20.00;;;;;;5008629;28;34057;-77
2022/06/05 04:51:05;;;;;;;7.90;4.72;;;19.60;20.60;;;;;;5008399;28;34188;-78
2022/06/05 04:53:31;;;;;;;6.35;4.63;;;19.60;21.40;;;;;;4992581;28;34376;-78
2022/06/05 04:55:58;;;;;;;4.70;4.30;;;19.60;21.50;;;;;;5008499;28;34905;-78
2022/06/05 04:58:24;;;;;;;5.45;4.95;;;19.60;21.80;;;;;;5003995;28;34260;-78
2022/06/05 05:00:50;;;;;;;6.90;5.22;;;19.60;22.20;;;;;;5007518;28;34454;-77
2022/06/05 05:03:34;;;;;;;4.68;4.28;;;19.60;22.40;;;;;;5008220;28;34143;-77
2022/06/05 05:06:00;;;;;;;8.10;5.65;;;19.60;26.30;;;;;;4989714;28;36120;-77
2022/06/05 05:08:26;;;;;;;6.15;5.55;;;19.50;23.10;;;;;;5017428;28;34317;-77
2022/06/05 05:10:52;;;;;;;7.03;5.15;;;19.50;23.30;;;;;;5007755;28;34222;-77
2022/06/05 05:13:18;;;;;;;8.88;5.05;;;19.50;23.90;;;;;;4991616;28;34149;-77
2022/06/05 05:15:49;;;;;;;5.38;4.88;;;19.50;24.20;;;;;;5006852;28;36303;-77
2022/06/05 05:18:14;;;;;;;6.68;5.28;;;19.50;25.40;;;;;;5006642;28;34048;-75
2022/06/05 05:20:40;;;;;;;5.93;5.18;;;19.50;24.80;;;;;;4987742;28;34132;-76
2022/06/05 05:23:07;;;;;;;6.50;5.18;;;19.40;25.00;;;;;;4991316;28;34169;-77
2022/06/05 05:25:33;;;;;;;6.00;5.40;;;19.40;25.20;;;;;;5024860;28;34355;-76
2022/06/05 05:27:59;;;;;;;8.93;5.25;;;19.40;25.50;;;;;;4992845;28;34348;-77
2022/06/05 05:30:27;;;;;;;6.90;5.72;;;19.50;25.80;;;;;;4988076;28;34398;-76
2022/06/05 05:32:53;;;;;;;7.90;5.68;;;19.50;26.30;;;;;;4993528;28;34603;-76
2022/06/05 05:35:20;;;;;;;6.82;6.13;;;19.40;26.20;;;;;;5001207;28;35500;-76
2022/06/05 05:37:47;;;;;;;7.63;6.50;;;19.50;26.40;;;;;;5006342;28;34291;-76
2022/06/05 05:42:54;;;;;;;8.82;5.88;;;19.50;26.80;;;;;;4993221;28;34107;-76
2022/06/05 05:45:19;;;;;;;8.90;6.38;;;19.60;26.70;;;;;;5024142;28;34904;-76
2022/06/05 05:47:45;;;;;;;9.52;5.97;;;19.60;26.80;;;;;;5013877;28;34228;-76
2022/06/05 05:50:15;;;;;;;7.30;6.03;;;19.50;27.00;;;;;;5006173;28;34495;-76
2022/06/05 05:52:42;;;;;;;8.70;5.97;;;19.60;27.20;;;;;;5015659;28;34078;-76
2022/06/05 05:55:13;;;;;;;6.97;6.30;;;19.60;27.20;;;;;;5032790;28;34195;-76
2022/06/05 05:57:41;;;;;;;7.07;5.85;;;19.70;27.80;;;;;;5005695;28;34780;-78
2022/06/05 06:00:09;;;;;;;7.63;5.93;;;19.70;27.50;;;;;;5006104;28;34061;-76
2022/06/05 06:02:36;;;;;;;6.85;6.00;;;19.80;27.90;;;;;;4974069;28;34536;-75
2022/06/05 06:05:03;;;;;;;19.40;6.53;;;19.80;28.00;;;;;;5023670;28;34993;-77
2022/06/05 06:07:29;;;;;;;7.82;6.18;;;19.90;28.10;;;;;;4994119;28;34234;-77
2022/06/05 06:09:56;;;;;;;6.70;6.00;;;19.90;28.10;;;;;;5002639;28;34016;-77
2022/06/05 06:12:23;;;;;;;6.90;6.20;;;20.00;28.20;;;;;;5005753;28;34044;-77
2022/06/05 06:14:50;;;;;;;7.95;6.03;;;20.00;28.40;;;;;;5006111;28;34412;-77
2022/06/05 06:17:16;;;;;;;8.98;6.65;;;20.10;28.40;;;;;;5023979;28;34284;-77
2022/06/05 06:19:42;;;;;;;7.43;6.28;;;20.10;28.50;;;;;;5006230;28;34179;-77
2022/06/05 06:22:08;;;;;;;6.97;6.28;;;20.10;28.50;;;;;;4989583;28;34152;-77
2022/06/05 06:24:34;;;;;;;6.32;5.72;;;20.20;28.50;;;;;;4988692;28;36704;-76
2022/06/05 06:27:00;;;;;;;6.88;6.22;;;20.30;28.60;;;;;;5004421;28;34630;-76
2022/06/05 06:29:26;;;;;;;6.45;5.85;;;20.30;28.60;;;;;;5022528;28;34270;-76
2022/06/05 06:31:52;;;;;;;7.15;5.75;;;20.30;28.60;;;;;;5003732;28;34217;-77
2022/06/05 06:34:18;;;;;;;8.52;5.72;;;20.40;28.60;;;;;;4983689;28;36391;-76
2022/06/05 06:36:43;;;;;;;6.30;5.70;;;20.50;28.70;;;;;;5004602;28;34157;-76
2022/06/05 06:39:10;;;;;;;6.40;5.80;;;20.50;28.70;;;;;;4990564;28;34105;-77
2022/06/05 06:41:39;;;;;;;6.72;6.13;;;20.60;28.70;;;;;;5005947;28;35701;-78
2022/06/05 06:44:05;;;;;;;6.70;6.00;;;20.60;29.00;;;;;;5024801;28;34530;-78
2022/06/05 06:46:32;;;;;;;9.20;6.22;;;20.70;28.70;;;;;;4993165;28;34357;-77
2022/06/05 06:48:58;;;;;;;6.00;5.47;;;20.80;28.70;;;;;;5012658;28;34181;-75
2022/06/05 06:51:24;;;;;;;7.82;5.97;;;20.80;28.80;;;;;;5012617;28;34170;-76
2022/06/05 06:53:50;;;;;;;6.95;6.30;;;20.90;28.70;;;;;;5005520;28;36586;-76
2022/06/05 06:56:24;;;;;;;8.13;6.10;;;20.90;28.60;;;;;;5013410;28;34242;-77
2022/06/05 06:58:50;;;;;;;7.28;5.82;;;21.00;28.30;;;;;;5008592;28;33925;-76
2022/06/05 07:01:16;;;;;;;7.15;6.00;;;21.00;28.20;;;;;;5029111;28;34362;-76
2022/06/05 07:03:45;;;;;;;6.40;5.80;;;21.10;28.20;;;;;;5004256;28;36492;-78
2022/06/05 07:06:13;;;;;;;8.00;6.03;;;21.10;28.40;;;;;;5006861;28;34454;-77
2022/06/05 07:08:41;;;;;;;6.30;5.40;;;21.20;28.40;;;;;;5011279;28;34185;-77
2022/06/05 07:11:10;;;;;;;6.82;6.18;;;21.30;28.50;;;;;;4991848;28;34484;-76
2022/06/05 07:13:36;;;;;;;6.65;5.60;;;21.40;28.50;;;;;;4996269;28;36583;-77
2022/06/05 07:16:06;;;;;;;6.13;5.63;;;21.50;28.30;;;;;;5011586;28;34319;-77
2022/06/05 07:18:32;;;;;;;6.03;5.43;;;21.60;28.30;;;;;;4979008;28;34099;-76
2022/06/05 07:21:05;;;;;;;6.00;5.38;;;21.60;27.90;;;;;;5007639;28;34091;-77
2022/06/05 07:23:40;;;;;;;5.82;5.25;;;21.60;28.00;;;;;;5012066;28;35665;-77
2022/06/05 07:26:09;;;;;;;6.38;5.50;;;21.60;28.30;;;;;;5003423;28;34337;-78
2022/06/05 07:28:36;;;;;;;5.30;4.82;;;21.70;28.60;;;;;;4992330;28;34282;-77
2022/06/05 07:31:04;;;;;;;5.68;5.18;;;21.70;28.50;;;;;;5026597;28;34386;-78
2022/06/05 07:33:31;;;;;;;6.53;4.63;;;21.70;28.70;;;;;;5003292;28;36674;-77
2022/06/05 07:35:59;;;;;;;5.97;5.43;;;21.70;28.80;;;;;;5001138;28;36596;-77
2022/06/05 07:38:25;;;;;;;5.55;5.00;;;21.70;28.70;;;;;;4991824;28;34236;-77
2022/06/05 07:40:52;;;;;;;6.13;5.38;;;21.60;28.70;;;;;;5006407;28;34657;-76
2022/06/05 07:43:21;;;;;;;4.80;4.30;;;21.60;28.80;;;;;;5007510;28;36523;-76
2022/06/05 07:45:54;;;;;;;5.40;4.90;;;21.60;28.90;;;;;;4985021;28;34301;-78
2022/06/05 07:48:22;;;;;;;5.20;4.70;;;21.50;29.50;;;;;;5005520;28;34949;-76
2022/06/05 07:56:21;;;;;;;5.82;4.97;;;21.60;29.10;;;;;;5026193;28;34144;-77
2022/06/05 07:58:47;;;;;;;5.38;4.88;;;21.60;29.00;;;;;;5003115;28;34157;-76
2022/06/05 08:01:13;;;;;;;4.63;4.22;;;21.70;29.20;;;;;;5008329;28;34115;-75
2022/06/05 08:03:39;;;;;;;4.88;4.15;;;21.80;29.50;;;;;;4978395;28;35402;-76
2022/06/05 08:06:08;;;;;;;4.65;4.25;;;21.90;28.70;;;;;;5018044;28;34242;-78
2022/06/05 08:08:34;;;;;;;5.53;4.88;;;21.90;28.80;;;;;;5007837;28;34290;-79
2022/06/05 08:11:05;;;;;;;5.40;4.90;;;22.00;28.80;;;;;;4969824;28;34101;-78
2022/06/05 08:13:30;;;;;;;6.32;4.75;;;22.00;29.50;;;;;;5004310;28;36780;-79
2022/06/05 08:18:41;;;;;;;4.82;4.40;;;22.10;28.70;;;;;;5023718;28;34238;-78
2022/06/05 08:21:07;;;;;;;5.10;4.60;;;22.10;28.50;;;;;;5007281;28;34486;-78
2022/06/05 08:23:33;;;;;;;5.63;4.45;;;22.00;28.50;;;;;;4980191;28;35614;-77
2022/06/05 08:25:59;;;;;;;4.68;4.28;;;22.00;28.50;;;;;;4994383;28;34414;-78
2022/06/05 08:28:25;;;;;;;6.43;4.47;;;22.10;28.60;;;;;;5007676;28;34146;-80
2022/06/05 08:30:52;;;;;;;5.82;4.60;;;22.10;28.80;;;;;;4967835;28;34671;-77
2022/06/05 08:33:18;;;;;;;4.28;3.83;;;22.20;29.00;;;;;;5006130;28;35669;-80
2022/06/05 08:35:46;;;;;;;3.53;3.22;;;22.40;28.90;;;;;;4998918;28;34409;-76
2022/06/05 08:41:29;;;;;;;4.90;2.88;;;22.60;27.60;;;;;;5017014;28;34231;-76
2022/06/05 08:44:26;;;;;;;3.63;2.75;;;22.70;27.70;;;;;;4976454;28;35692;-77
2022/06/05 08:47:15;;;;;;;2.70;2.50;;;22.80;27.60;;;;;;5005641;28;34274;-76
2022/06/05 08:49:47;;;;;;;3.55;2.00;;;22.70;28.00;;;;;;4985038;28;34340;-77
2022/06/05 08:52:35;;;;;;;2.45;2.10;;;22.80;27.20;;;;;;4985862;28;34281;-79
2022/06/05 08:55:13;;;;;;;3.83;2.10;;;22.80;27.70;;;;;;5000357;28;36468;-78
2022/06/05 08:57:52;;;;;;;3.20;2.10;;;22.90;26.70;;;;;;5007186;28;34332;-78
2022/06/05 09:00:26;;;;;;;2.88;1.90;;;22.90;27.30;;;;;;5008687;28;34211;-79
2022/06/05 09:03:03;;;;;;;2.05;1.90;;;22.80;26.70;;;;;;5016260;28;34141;-79
2022/06/05 09:05:35;;;;;;;3.92;1.88;;;22.80;26.90;;;;;;4999266;28;35991;-77
2022/06/05 09:08:08;;;;;;;1.92;1.63;;;22.80;26.50;;;;;;4998751;28;34253;-78
2022/06/05 09:10:40;;;;;;;2.72;1.63;;;22.80;26.30;;;;;;5000007;28;34246;-79
2022/06/05 09:13:25;;;;;;;2.53;1.50;;;22.70;26.30;;;;;;5001693;28;34194;-78
2022/06/05 09:16:00;;;;;;;2.90;1.33;;;22.80;26.50;;;;;;4998505;28;36086;-78
2022/06/05 09:18:35;;;;;;;1.50;1.40;;;22.80;26.00;;;;;;5007180;28;34115;-77
2022/06/05 09:21:08;;;;;;;2.58;1.25;;;22.80;25.80;;;;;;5002745;28;34163;-78
2022/06/05 09:23:48;;;;;;;1.45;1.25;;;22.90;25.60;;;;;;4997731;28;34467;-77
2022/06/05 09:26:24;;;;;;;2.35;1.60;;;23.00;25.40;;;;;;5004407;28;35537;-78
2022/06/05 09:29:19;;;;;;;2.88;1.60;;;23.30;25.10;;;;;;5013178;28;34422;-79
2022/06/05 09:32:38;;;;;;;4.30;1.80;;;23.70;27.80;;;;;;4999351;28;34803;-79
2022/06/05 09:35:20;;;;;;;3.65;1.60;;;24.00;25.80;;;;;;4990882;28;34544;-80
2022/06/05 09:38:07;;;;;;;2.17;1.27;;;24.20;22.90;;;;;;4984631;28;36669;-79
2022/06/05 09:40:38;;;;;;;1.98;1.80;;;24.50;21.20;;;;;;5002048;28;34170;-81
2022/06/05 09:43:39;;;;;;;4.13;1.40;;;24.60;22.80;;;;;;4975221;28;34150;-81
2022/06/05 09:46:21;;;;;;;1.20;1.10;;;24.80;23.10;;;;;;4996769;28;34455;-82
2022/06/05 09:49:20;;;;;;;1.40;1.30;;;24.90;21.60;;;;;;5004266;28;35595;-81
2022/06/05 09:51:46;;;;;;;1.77;1.48;;;25.10;21.30;;;;;;5020144;28;34253;-78
2022/06/05 09:54:28;;;;;;;3.30;1.48;;;25.30;21.60;;;;;;5005762;28;34286;-80
2022/06/05 10:00:07;;;;;;;1.58;1.35;;;25.40;19.40;;;;;;5006662;28;34273;-80
2022/06/05 10:02:36;;;;;;;1.50;1.27;;;25.50;19.40;;;;;;5005946;28;34398;-80
2022/06/05 10:05:12;;;;;;;1.40;1.30;;;25.60;20.20;;;;;;5004285;28;34380;-81
2022/06/05 10:07:47;;;;;;;2.28;1.40;;;25.60;19.20;;;;;;5009266;28;34486;-79
2022/06/05 10:10:21;;;;;;;1.60;1.40;;;25.60;19.20;;;;;;4998884;28;36095;-80
2022/06/05 10:12:53;;;;;;;1.63;1.20;;;25.70;20.20;;;;;;5002252;28;34253;-81
2022/06/05 10:15:27;;;;;;;2.33;1.30;;;25.90;20.10;;;;;;4994041;28;34112;-79
2022/06/05 10:18:01;;;;;;;4.75;1.08;;;25.80;19.30;;;;;;5002724;28;34598;-78
2022/06/05 10:20:54;;;;;;;1.55;1.05;;;25.90;19.90;;;;;;5016865;28;34397;-78
2022/06/05 10:23:42;;;;;;;1.40;1.30;;;26.00;19.60;;;;;;4983889;28;34330;-77
2022/06/05 10:26:33;;;;;;;1.48;1.23;;;26.10;20.30;;;;;;5016346;28;34377;-78
2022/06/05 10:29:30;;;;;;;1.17;1.00;;;26.30;20.20;;;;;;4999989;28;34909;-76
2022/06/05 10:32:11;;;;;;;1.45;1.23;;;26.30;17.20;;;;;;5003803;28;36049;-77
2022/06/05 10:34:47;;;;;;;1.77;1.13;;;26.30;19.30;;;;;;4982795;28;34303;-78
2022/06/05 10:37:22;;;;;;;3.08;1.20;;;26.30;19.90;;;;;;4998953;28;34526;-77
2022/06/05 10:40:00;;;;;;;1.50;1.20;;;26.40;19.60;;;;;;5015783;28;34201;-77
2022/06/05 10:42:52;;;;;;;1.58;1.10;;;26.30;18.10;;;;;;5010449;28;34351;-78
2022/06/05 10:45:39;;;;;;;1.45;1.20;;;26.00;19.00;;;;;;4985795;28;34238;-80
2022/06/05 10:48:17;;;;;;;1.00;1.00;;;25.80;18.90;;;;;;4999878;28;34378;-76
2022/06/05 10:50:58;;;;;;;1.20;1.10;;;25.60;19.10;;;;;;4998100;28;34040;-77
2022/06/05 10:53:43;;;;;;;3.65;1.20;;;25.30;20.40;;;;;;4994873;28;35717;-77
2022/06/05 10:56:34;;;;;;;2.63;1.50;;;25.10;20.00;;;;;;5002717;28;34054;-78
2022/06/05 10:59:20;;;;;;;2.38;1.40;;;24.80;20.80;;;;;;4999519;28;34366;-75
2022/06/05 11:02:07;;;;;;;3.28;2.17;;;24.40;22.00;;;;;;5002693;28;34453;-79
2022/06/05 11:05:03;;;;;;;2.47;2.15;;;24.30;22.30;;;;;;5009213;28;34345;-77
2022/06/05 11:07:53;;;;;;;3.30;1.58;;;24.30;23.40;;;;;;5016237;28;34349;-78
2022/06/05 11:13:47;;;;;;;4.28;1.70;;;24.20;23.30;;;;;;5023928;28;34341;-80
2022/06/05 11:16:24;;;;;;;4.80;1.75;;;24.10;24.70;;;;;;5010210;28;35669;-77
2022/06/05 11:19:08;;;;;;;2.03;1.63;;;23.90;23.40;;;;;;5001798;28;34329;-77
2022/06/05 11:21:39;;;;;;;2.63;1.60;;;23.70;23.50;;;;;;4990980;28;34469;-76
2022/06/05 11:24:13;;;;;;;4.57;2.03;;;23.50;23.40;;;;;;5003566;28;34363;-77
2022/06/05 11:26:56;;;;;;;2.25;1.80;;;23.30;24.30;;;;;;5002144;28;36554;-75
2022/06/05 11:29:55;;;;;;;1.85;1.45;;;22.90;26.70;;;;;;4986044;28;34321;-77
2022/06/05 11:32:46;;;;;;;3.53;1.30;;;22.60;27.60;;;;;;5005864;28;34234;-80
2022/06/05 11:35:43;;;;;;;0.98;0.98;;;22.30;26.60;;;;;;4991060;28;34823;-76
2022/06/05 11:38:35;;;;;;;2.05;1.00;;;22.20;28.90;;;;;;5014088;28;34572;-77
2022/06/05 11:41:23;;;;;;;4.32;2.30;;;22.20;28.40;;;;;;5016281;28;35302;-77
2022/06/05 11:44:15;;;;;;;1.83;1.00;;;22.20;28.60;;;;;;5001452;28;34231;-77
2022/06/05 11:46:56;;;;;;;1.50;1.13;;;22.40;27.00;;;;;;4989067;28;34218;-79
2022/06/05 11:49:50;;;;;;;1.20;1.10;;;22.70;28.20;;;;;;5002068;28;35824;-78
2022/06/05 11:52:42;;;;;;;1.17;1.10;;;22.80;27.40;;;;;;5005430;28;34657;-78
2022/06/05 11:55:36;;;;;;;1.30;1.20;;;23.00;26.70;;;;;;5005282;28;34429;-76
2022/06/05 11:58:26;;;;;;;2.85;1.20;;;23.20;28.30;;;;;;5006422;28;34438;-78
2022/06/05 12:01:00;;;;;;;1.90;1.15;;;23.20;26.10;;;;;;5001605;28;35839;-79
2022/06/05 12:03:36;;;;;;;1.95;1.13;;;23.20;25.10;;;;;;4994828;28;34002;-76
2022/06/05 12:06:29;;;;;;;2.33;1.35;;;23.30;25.10;;;;;;4988055;28;34488;-78
2022/06/05 12:09:00;;;;;;;1.50;1.27;;;23.30;26.50;;;;;;5005420;28;34621;-79
2022/06/05 12:11:39;;;;;;;1.60;1.50;;;23.50;24.50;;;;;;5010733;28;35065;-77
2022/06/05 12:14:27;;;;;;;1.25;1.20;;;23.80;25.10;;;;;;4999790;28;34399;-77
2022/06/05 12:17:09;;;;;;;1.10;1.00;;;23.70;23.80;;;;;;5001428;28;34206;-79
2022/06/05 12:20:16;;;;;;;1.65;1.30;;;23.70;25.40;;;;;;4989648;28;34405;-79
2022/06/05 12:22:51;;;;;;;2.95;1.40;;;23.70;23.90;;;;;;4982223;28;34355;-75
2022/06/05 12:25:45;;;;;;;1.15;1.15;;;23.60;23.30;;;;;;5004765;28;34270;-78
2022/06/05 12:28:18;;;;;;;1.63;1.23;;;23.40;23.80;;;;;;5008423;28;34081;-77
2022/06/05 12:30:54;;;;;;;2.38;1.17;;;23.40;24.10;;;;;;5033011;28;34400;-77
2022/06/05 12:33:41;;;;;;;1.45;1.35;;;23.30;25.10;;;;;;5002568;28;35433;-78
2022/06/05 12:36:26;;;;;;;1.58;1.33;;;23.30;25.90;;;;;;5007778;28;34162;-78
2022/06/05 12:38:59;;;;;;;1.60;1.20;;;23.20;25.70;;;;;;5022470;28;35155;-78
2022/06/05 12:41:48;;;;;;;1.33;1.25;;;23.10;24.90;;;;;;5001478;28;34287;-78
2022/06/05 12:44:32;;;;;;;1.35;1.27;;;22.90;25.40;;;;;;4999494;28;36444;-80
2022/06/05 12:47:32;;;;;;;1.45;1.35;;;22.90;26.50;;;;;;5006514;28;34514;-80
2022/06/05 12:50:17;;;;;;;1.35;1.25;;;22.90;26.30;;;;;;5000236;28;34072;-80
2022/06/05 12:53:11;;;;;;;1.45;1.35;;;22.90;25.20;;;;;;5008939;28;34168;-79
2022/06/05 12:55:47;;;;;;;1.05;1.00;;;22.80;26.50;;;;;;5006587;28;35623;-82
2022/06/05 12:58:21;;;;;;;1.50;1.40;;;22.80;25.30;;;;;;5019887;28;34278;-80
2022/06/05 13:00:57;;;;;;;2.13;1.20;;;22.80;25.50;;;;;;4990721;28;34657;-79
2022/06/05 13:03:51;;;;;;;1.10;1.00;;;22.80;25.30;;;;;;4994217;28;34184;-79
2022/06/05 13:06:47;;;;;;;1.17;1.08;;;22.90;27.50;;;;;;4994481;28;35514;-78
2022/06/05 13:09:38;;;;;;;1.10;1.10;;;22.80;25.60;;;;;;5001659;28;35143;-80
2022/06/05 13:12:26;;;;;;;0.85;0.85;;;22.80;25.30;;;;;;4991778;28;34084;-79
2022/06/05 13:15:22;;;;;;;2.72;1.20;;;22.70;25.10;;;;;;4994857;28;34120;-79
2022/06/05 13:18:08;;;;;;;2.78;1.17;;;22.60;26.80;;;;;;5000920;28;36013;-79
2022/06/05 13:20:41;;;;;;;1.58;0.90;;;22.40;25.50;;;;;;5002845;28;34320;-76
2022/06/05 13:23:27;;;;;;;0.93;0.82;;;22.30;25.70;;;;;;4977047;28;34369;-76
2022/06/05 13:26:29;;;;;;;1.00;1.00;;;22.30;25.60;;;;;;5003421;28;34294;-78
2022/06/05 13:29:16;;;;;;;1.20;1.13;;;22.30;26.90;;;;;;4977320;28;34370;-76
2022/06/05 13:34:54;;;;;;;1.10;1.10;;;22.20;25.80;;;;;;5013099;28;34238;-79
2022/06/05 13:37:30;;;;;;;1.08;1.08;;;22.20;25.80;;;;;;4991459;28;34152;-78
2022/06/05 13:40:05;;;;;;;1.10;1.10;;;22.20;25.80;;;;;;5019197;28;35382;-78
2022/06/05 13:42:36;;;;;;;4.13;1.10;;;22.20;26.20;;;;;;5002403;28;34191;-78
2022/06/05 13:45:07;;;;;;;1.38;1.27;;;22.30;25.50;;;;;;4988291;28;34093;-75
2022/06/05 13:47:45;;;;;;;1.65;1.00;;;22.50;25.70;;;;;;4996660;28;34355;-77
2022/06/05 13:50:35;;;;;;;1.00;1.00;;;22.60;25.80;;;;;;5010200;28;36239;-76
2022/06/05 13:53:16;;;;;;;1.08;1.02;;;22.70;26.10;;;;;;4992333;28;34603;-79